sensor_id;sensor_type;location;lat;lon;timestamp;temperature;humidity
70170;DHT22;57543;45.442;9.212;2022-08-06T00:01:15;30.16;56.58
70170;DHT22;57543;45.442;9.212;2022-08-06T00:04:19;30.07;56.33
70170;DHT22;57543;45.442;9.212;2022-08-06T00:07:22;29.97;55.86
70170;DHT22;57543;45.442;9.212;2022-08-06T00:10:26;29.86;56.51
70170;DHT22;57543;45.442;9.212;2022-08-06T00:13:30;29.79;55.66
70170;DHT22;57543;45.442;9.212;2022-08-06T00:16:34;29.82;54.85
70170;DHT22;57543;45.442;9.212;2022-08-06T00:19:37;29.84;54.69
70170;DHT22;57543;45.442;9.212;2022-08-06T00:22:42;29.94;54.28
70170;DHT22;57543;45.442;9.212;2022-08-06T00:25:45;29.99;52.20
70170;DHT22;57543;45.442;9.212;2022-08-06T00:28:50;30.03;50.48
70170;DHT22;57543;45.442;9.212;2022-08-06T00:31:53;30.07;48.82
70170;DHT22;57543;45.442;9.212;2022-08-06T00:34:57;30.16;46.96
70170;DHT22;57543;45.442;9.212;2022-08-06T00:38:01;30.13;46.75
70170;DHT22;57543;45.442;9.212;2022-08-06T00:41:05;30.20;46.19
70170;DHT22;57543;45.442;9.212;2022-08-06T00:44:09;30.25;45.40
70170;DHT22;57543;45.442;9.212;2022-08-06T00:47:13;30.24;45.25
70170;DHT22;57543;45.442;9.212;2022-08-06T00:50:16;30.20;45.44
70170;DHT22;57543;45.442;9.212;2022-08-06T00:53:20;30.38;45.27
70170;DHT22;57543;45.442;9.212;2022-08-06T00:56:24;30.31;46.03
70170;DHT22;57543;45.442;9.212;2022-08-06T00:59:28;30.24;46.46
70170;DHT22;57543;45.442;9.212;2022-08-06T01:02:32;30.37;46.63
70170;DHT22;57543;45.442;9.212;2022-08-06T01:05:36;30.32;47.05
70170;DHT22;57543;45.442;9.212;2022-08-06T01:08:40;30.28;47.67
70170;DHT22;57543;45.442;9.212;2022-08-06T01:11:44;30.21;48.15
70170;DHT22;57543;45.442;9.212;2022-08-06T01:14:48;30.18;48.49
70170;DHT22;57543;45.442;9.212;2022-08-06T01:24:53;30.10;50.36
70170;DHT22;57543;45.442;9.212;2022-08-06T01:28:12;30.03;50.83
70170;DHT22;57543;45.442;9.212;2022-08-06T01:31:28;30.00;50.98
70170;DHT22;57543;45.442;9.212;2022-08-06T01:34:39;29.99;51.38
70170;DHT22;57543;45.442;9.212;2022-08-06T01:41:03;29.92;52.58
70170;DHT22;57543;45.442;9.212;2022-08-06T01:44:09;29.92;52.95
70170;DHT22;57543;45.442;9.212;2022-08-06T01:47:17;29.87;53.46
70170;DHT22;57543;45.442;9.212;2022-08-06T01:50:43;29.73;54.15
70170;DHT22;57543;45.442;9.212;2022-08-06T01:53:52;29.66;54.54
70170;DHT22;57543;45.442;9.212;2022-08-06T01:56:57;29.49;55.33
70170;DHT22;57543;45.442;9.212;2022-08-06T02:00:05;29.58;55.34
70170;DHT22;57543;45.442;9.212;2022-08-06T02:03:24;29.62;54.84
70170;DHT22;57543;45.442;9.212;2022-08-06T02:06:31;29.54;55.13
70170;DHT22;57543;45.442;9.212;2022-08-06T02:09:38;29.22;56.13
70170;DHT22;57543;45.442;9.212;2022-08-06T02:12:44;29.14;56.68
70170;DHT22;57543;45.442;9.212;2022-08-06T02:15:51;29.22;56.29
70170;DHT22;57543;45.442;9.212;2022-08-06T02:18:57;29.25;56.17
70170;DHT22;57543;45.442;9.212;2022-08-06T02:22:03;29.31;56.26
70170;DHT22;57543;45.442;9.212;2022-08-06T02:25:09;29.37;55.86
70170;DHT22;57543;45.442;9.212;2022-08-06T02:28:17;29.30;55.96
70170;DHT22;57543;45.442;9.212;2022-08-06T02:31:21;29.24;56.06
70170;DHT22;57543;45.442;9.212;2022-08-06T02:34:25;29.22;56.19
70170;DHT22;57543;45.442;9.212;2022-08-06T02:37:45;29.20;56.28
70170;DHT22;57543;45.442;9.212;2022-08-06T02:40:55;29.20;56.23
70170;DHT22;57543;45.442;9.212;2022-08-06T02:44:06;29.18;56.29
70170;DHT22;57543;45.442;9.212;2022-08-06T02:50:37;29.24;55.61
70170;DHT22;57543;45.442;9.212;2022-08-06T02:57:06;29.10;56.39
70170;DHT22;57543;45.442;9.212;2022-08-06T03:00:11;29.08;56.33
70170;DHT22;57543;45.442;9.212;2022-08-06T03:03:15;29.11;56.22
70170;DHT22;57543;45.442;9.212;2022-08-06T03:06:20;29.08;56.38
70170;DHT22;57543;45.442;9.212;2022-08-06T03:09:26;29.08;56.24
70170;DHT22;57543;45.442;9.212;2022-08-06T03:12:30;29.15;55.95
70170;DHT22;57543;45.442;9.212;2022-08-06T03:15:35;29.06;56.13
70170;DHT22;57543;45.442;9.212;2022-08-06T03:18:42;29.02;56.30
70170;DHT22;57543;45.442;9.212;2022-08-06T03:21:47;28.93;56.70
70170;DHT22;57543;45.442;9.212;2022-08-06T03:24:53;28.92;56.75
70170;DHT22;57543;45.442;9.212;2022-08-06T03:27:58;28.90;56.49
70170;DHT22;57543;45.442;9.212;2022-08-06T03:31:03;28.89;56.72
70170;DHT22;57543;45.442;9.212;2022-08-06T03:34:07;28.97;56.43
70170;DHT22;57543;45.442;9.212;2022-08-06T03:37:11;28.94;56.25
70170;DHT22;57543;45.442;9.212;2022-08-06T03:40:17;28.97;56.09
70170;DHT22;57543;45.442;9.212;2022-08-06T03:43:21;29.02;55.96
70170;DHT22;57543;45.442;9.212;2022-08-06T03:46:51;29.18;55.28
70170;DHT22;57543;45.442;9.212;2022-08-06T03:50:09;29.04;55.74
70170;DHT22;57543;45.442;9.212;2022-08-06T03:53:18;29.02;55.71
70170;DHT22;57543;45.442;9.212;2022-08-06T03:56:24;29.04;55.69
70170;DHT22;57543;45.442;9.212;2022-08-06T03:59:30;29.02;55.66
70170;DHT22;57543;45.442;9.212;2022-08-06T04:02:50;29.00;55.81
70170;DHT22;57543;45.442;9.212;2022-08-06T04:05:55;29.00;55.90
70170;DHT22;57543;45.442;9.212;2022-08-06T04:09:00;29.18;55.12
70170;DHT22;57543;45.442;9.212;2022-08-06T04:12:04;29.13;55.57
70170;DHT22;57543;45.442;9.212;2022-08-06T04:15:09;29.02;55.97
70170;DHT22;57543;45.442;9.212;2022-08-06T04:18:15;28.83;56.28
70170;DHT22;57543;45.442;9.212;2022-08-06T04:21:22;28.72;56.69
70170;DHT22;57543;45.442;9.212;2022-08-06T04:24:26;28.75;56.35
70170;DHT22;57543;45.442;9.212;2022-08-06T04:27:30;28.84;55.62
70170;DHT22;57543;45.442;9.212;2022-08-06T04:30:35;28.92;55.08
70170;DHT22;57543;45.442;9.212;2022-08-06T04:33:39;28.96;54.86
70170;DHT22;57543;45.442;9.212;2022-08-06T04:36:44;29.04;54.79
70170;DHT22;57543;45.442;9.212;2022-08-06T04:39:48;28.90;55.46
70170;DHT22;57543;45.442;9.212;2022-08-06T04:42:53;28.90;55.55
70170;DHT22;57543;45.442;9.212;2022-08-06T04:45:57;28.90;55.73
70170;DHT22;57543;45.442;9.212;2022-08-06T04:49:00;28.92;55.70
70170;DHT22;57543;45.442;9.212;2022-08-06T04:52:04;29.03;54.88
70170;DHT22;57543;45.442;9.212;2022-08-06T04:55:08;28.86;55.37
70170;DHT22;57543;45.442;9.212;2022-08-06T04:58:14;28.90;55.51
70170;DHT22;57543;45.442;9.212;2022-08-06T05:01:18;28.94;55.48
70170;DHT22;57543;45.442;9.212;2022-08-06T05:04:22;28.94;55.16
70170;DHT22;57543;45.442;9.212;2022-08-06T05:07:31;28.86;55.23
70170;DHT22;57543;45.442;9.212;2022-08-06T05:10:49;28.82;55.66
70170;DHT22;57543;45.442;9.212;2022-08-06T05:13:58;28.83;55.72
70170;DHT22;57543;45.442;9.212;2022-08-06T05:17:06;28.84;55.52
70170;DHT22;57543;45.442;9.212;2022-08-06T05:20:18;28.92;55.08
70170;DHT22;57543;45.442;9.212;2022-08-06T05:23:32;28.90;55.32
70170;DHT22;57543;45.442;9.212;2022-08-06T05:26:38;28.86;55.21
70170;DHT22;57543;45.442;9.212;2022-08-06T05:29:42;28.89;54.73
70170;DHT22;57543;45.442;9.212;2022-08-06T05:32:48;28.94;54.46
70170;DHT22;57543;45.442;9.212;2022-08-06T05:35:53;28.84;54.45
70170;DHT22;57543;45.442;9.212;2022-08-06T05:38:56;28.96;53.61
70170;DHT22;57543;45.442;9.212;2022-08-06T05:42:00;28.97;53.84
70170;DHT22;57543;45.442;9.212;2022-08-06T05:45:08;29.06;53.38
70170;DHT22;57543;45.442;9.212;2022-08-06T05:48:15;29.17;53.09
70170;DHT22;57543;45.442;9.212;2022-08-06T05:51:29;29.28;52.96
70170;DHT22;57543;45.442;9.212;2022-08-06T05:54:54;29.44;52.55
70170;DHT22;57543;45.442;9.212;2022-08-06T05:58:04;29.62;51.67
70170;DHT22;57543;45.442;9.212;2022-08-06T06:01:09;29.70;51.31
70170;DHT22;57543;45.442;9.212;2022-08-06T06:04:14;29.86;50.81
70170;DHT22;57543;45.442;9.212;2022-08-06T06:07:18;29.87;51.29
70170;DHT22;57543;45.442;9.212;2022-08-06T06:10:23;29.79;52.08
70170;DHT22;57543;45.442;9.212;2022-08-06T06:13:28;29.70;52.37
70170;DHT22;57543;45.442;9.212;2022-08-06T06:16:36;29.77;54.04
70170;DHT22;57543;45.442;9.212;2022-08-06T06:26:54;29.45;57.72
70170;DHT22;57543;45.442;9.212;2022-08-06T06:30:05;29.52;57.84
70170;DHT22;57543;45.442;9.212;2022-08-06T06:33:18;29.51;57.96
70170;DHT22;57543;45.442;9.212;2022-08-06T06:43:09;29.44;58.13
70170;DHT22;57543;45.442;9.212;2022-08-06T06:46:53;29.67;57.62
70170;DHT22;57543;45.442;9.212;2022-08-06T06:50:22;29.69;57.58
70170;DHT22;57543;45.442;9.212;2022-08-06T06:53:26;29.96;56.78
70170;DHT22;57543;45.442;9.212;2022-08-06T06:56:36;30.04;56.17
70170;DHT22;57543;45.442;9.212;2022-08-06T06:59:47;30.17;55.99
70170;DHT22;57543;45.442;9.212;2022-08-06T07:02:56;30.16;55.90
70170;DHT22;57543;45.442;9.212;2022-08-06T07:06:04;30.23;55.60
70170;DHT22;57543;45.442;9.212;2022-08-06T07:09:10;30.25;54.96
70170;DHT22;57543;45.442;9.212;2022-08-06T07:12:19;30.35;54.85
70170;DHT22;57543;45.442;9.212;2022-08-06T07:15:24;30.34;55.01
70170;DHT22;57543;45.442;9.212;2022-08-06T07:18:28;30.54;53.77
70170;DHT22;57543;45.442;9.212;2022-08-06T07:21:33;30.61;53.92
70170;DHT22;57543;45.442;9.212;2022-08-06T07:24:38;30.71;53.52
70170;DHT22;57543;45.442;9.212;2022-08-06T07:27:46;30.76;53.58
70170;DHT22;57543;45.442;9.212;2022-08-06T07:30:49;30.80;53.49
70170;DHT22;57543;45.442;9.212;2022-08-06T07:33:53;30.90;52.83
70170;DHT22;57543;45.442;9.212;2022-08-06T07:36:57;30.97;52.49
70170;DHT22;57543;45.442;9.212;2022-08-06T07:40:02;30.93;52.09
70170;DHT22;57543;45.442;9.212;2022-08-06T07:43:13;30.91;51.80
70170;DHT22;57543;45.442;9.212;2022-08-06T07:46:20;30.93;51.22
70170;DHT22;57543;45.442;9.212;2022-08-06T07:49:35;30.90;51.64
70170;DHT22;57543;45.442;9.212;2022-08-06T07:52:40;30.99;50.82
70170;DHT22;57543;45.442;9.212;2022-08-06T07:55:45;31.01;50.69
70170;DHT22;57543;45.442;9.212;2022-08-06T07:58:49;31.11;50.54
70170;DHT22;57543;45.442;9.212;2022-08-06T08:01:53;31.08;50.33
70170;DHT22;57543;45.442;9.212;2022-08-06T08:04:58;31.11;50.63
70170;DHT22;57543;45.442;9.212;2022-08-06T08:08:20;31.31;50.04
70170;DHT22;57543;45.442;9.212;2022-08-06T08:11:25;31.41;49.31
70170;DHT22;57543;45.442;9.212;2022-08-06T08:14:28;31.44;49.35
70170;DHT22;57543;45.442;9.212;2022-08-06T08:17:35;31.61;48.29
70170;DHT22;57543;45.442;9.212;2022-08-06T08:20:41;31.76;47.91
70170;DHT22;57543;45.442;9.212;2022-08-06T08:23:46;31.86;47.77
70170;DHT22;57543;45.442;9.212;2022-08-06T08:26:50;31.99;46.72
70170;DHT22;57543;45.442;9.212;2022-08-06T08:29:53;32.17;46.88
70170;DHT22;57543;45.442;9.212;2022-08-06T08:32:57;32.31;45.96
70170;DHT22;57543;45.442;9.212;2022-08-06T08:36:01;32.59;45.11
70170;DHT22;57543;45.442;9.212;2022-08-06T08:39:06;32.76;45.02
70170;DHT22;57543;45.442;9.212;2022-08-06T08:42:14;32.98;43.82
70170;DHT22;57543;45.442;9.212;2022-08-06T08:45:21;33.20;42.60
70170;DHT22;57543;45.442;9.212;2022-08-06T08:48:26;33.35;42.08
70170;DHT22;57543;45.442;9.212;2022-08-06T08:51:36;33.54;42.37
70170;DHT22;57543;45.442;9.212;2022-08-06T08:54:44;33.69;42.14
70170;DHT22;57543;45.442;9.212;2022-08-06T08:57:50;33.81;41.82
70170;DHT22;57543;45.442;9.212;2022-08-06T09:00:55;33.99;41.40
70170;DHT22;57543;45.442;9.212;2022-08-06T09:04:04;34.13;40.76
70170;DHT22;57543;45.442;9.212;2022-08-06T09:07:09;34.30;41.23
70170;DHT22;57543;45.442;9.212;2022-08-06T09:10:13;34.30;41.11
70170;DHT22;57543;45.442;9.212;2022-08-06T09:13:17;34.30;40.79
70170;DHT22;57543;45.442;9.212;2022-08-06T09:16:21;34.37;40.55
70170;DHT22;57543;45.442;9.212;2022-08-06T09:19:25;34.20;41.45
70170;DHT22;57543;45.442;9.212;2022-08-06T09:22:32;34.62;40.84
70170;DHT22;57543;45.442;9.212;2022-08-06T09:25:39;34.75;40.06
70170;DHT22;57543;45.442;9.212;2022-08-06T09:28:44;34.81;40.41
70170;DHT22;57543;45.442;9.212;2022-08-06T09:31:48;35.33;39.54
70170;DHT22;57543;45.442;9.212;2022-08-06T09:34:52;35.27;39.42
70170;DHT22;57543;45.442;9.212;2022-08-06T09:38:04;35.46;39.64
70170;DHT22;57543;45.442;9.212;2022-08-06T09:41:10;35.62;39.50
70170;DHT22;57543;45.442;9.212;2022-08-06T09:44:15;35.47;40.30
70170;DHT22;57543;45.442;9.212;2022-08-06T09:47:19;36.28;38.49
70170;DHT22;57543;45.442;9.212;2022-08-06T09:50:42;35.82;38.67
70170;DHT22;57543;45.442;9.212;2022-08-06T09:56:56;36.05;37.97
70170;DHT22;57543;45.442;9.212;2022-08-06T10:00:04;36.13;37.77
70170;DHT22;57543;45.442;9.212;2022-08-06T10:03:11;36.57;37.69
70170;DHT22;57543;45.442;9.212;2022-08-06T10:06:17;36.50;37.37
70170;DHT22;57543;45.442;9.212;2022-08-06T10:09:24;37.11;36.43
70170;DHT22;57543;45.442;9.212;2022-08-06T10:12:28;37.22;36.57
70170;DHT22;57543;45.442;9.212;2022-08-06T10:15:32;37.19;36.95
70170;DHT22;57543;45.442;9.212;2022-08-06T10:18:48;37.07;38.53
70170;DHT22;57543;45.442;9.212;2022-08-06T10:21:51;37.12;37.54
70170;DHT22;57543;45.442;9.212;2022-08-06T10:24:56;37.21;36.99
70170;DHT22;57543;45.442;9.212;2022-08-06T10:28:02;37.69;35.94
70170;DHT22;57543;45.442;9.212;2022-08-06T10:31:08;37.49;37.73
70170;DHT22;57543;45.442;9.212;2022-08-06T10:34:18;37.63;36.16
70170;DHT22;57543;45.442;9.212;2022-08-06T10:37:23;37.14;36.98
70170;DHT22;57543;45.442;9.212;2022-08-06T10:40:27;37.59;36.23
70170;DHT22;57543;45.442;9.212;2022-08-06T10:43:34;37.19;36.22
70170;DHT22;57543;45.442;9.212;2022-08-06T10:46:38;37.01;36.15
70170;DHT22;57543;45.442;9.212;2022-08-06T10:49:42;37.11;36.10
70170;DHT22;57543;45.442;9.212;2022-08-06T10:52:46;37.09;36.28
70170;DHT22;57543;45.442;9.212;2022-08-06T10:55:52;37.43;36.03
70170;DHT22;57543;45.442;9.212;2022-08-06T10:58:56;37.66;35.66
70170;DHT22;57543;45.442;9.212;2022-08-06T11:05:17;37.84;34.97
70170;DHT22;57543;45.442;9.212;2022-08-06T11:12:17;37.56;36.51
70170;DHT22;57543;45.442;9.212;2022-08-06T11:15:35;37.57;35.82
70170;DHT22;57543;45.442;9.212;2022-08-06T11:19:09;37.59;35.90
70170;DHT22;57543;45.442;9.212;2022-08-06T11:22:36;37.81;35.60
70170;DHT22;57543;45.442;9.212;2022-08-06T11:25:48;37.80;35.29
70170;DHT22;57543;45.442;9.212;2022-08-06T11:31:57;37.74;34.86
70170;DHT22;57543;45.442;9.212;2022-08-06T11:45:01;38.55;33.09
70170;DHT22;57543;45.442;9.212;2022-08-06T11:48:06;38.43;32.85
70170;DHT22;57543;45.442;9.212;2022-08-06T11:57:48;38.28;32.62
70170;DHT22;57543;45.442;9.212;2022-08-06T12:01:00;38.18;32.69
70170;DHT22;57543;45.442;9.212;2022-08-06T12:04:04;38.35;32.59
70170;DHT22;57543;45.442;9.212;2022-08-06T12:10:20;39.14;32.17
70170;DHT22;57543;45.442;9.212;2022-08-06T12:13:37;39.05;31.43
70170;DHT22;57543;45.442;9.212;2022-08-06T12:16:41;39.14;31.57
70170;DHT22;57543;45.442;9.212;2022-08-06T12:19:47;39.17;32.74
70170;DHT22;57543;45.442;9.212;2022-08-06T12:22:50;39.15;31.97
70170;DHT22;57543;45.442;9.212;2022-08-06T12:25:54;38.97;31.70
70170;DHT22;57543;45.442;9.212;2022-08-06T12:29:01;38.91;31.93
70170;DHT22;57543;45.442;9.212;2022-08-06T12:32:24;39.15;31.78
70170;DHT22;57543;45.442;9.212;2022-08-06T12:35:28;39.23;31.69
70170;DHT22;57543;45.442;9.212;2022-08-06T12:38:32;39.25;31.65
70170;DHT22;57543;45.442;9.212;2022-08-06T12:41:39;39.21;31.11
70170;DHT22;57543;45.442;9.212;2022-08-06T12:44:44;39.22;31.61
70170;DHT22;57543;45.442;9.212;2022-08-06T12:48:11;38.74;31.36
70170;DHT22;57543;45.442;9.212;2022-08-06T12:51:14;38.58;30.84
70170;DHT22;57543;45.442;9.212;2022-08-06T12:54:27;38.62;32.36
70170;DHT22;57543;45.442;9.212;2022-08-06T12:57:31;38.88;32.44
70170;DHT22;57543;45.442;9.212;2022-08-06T13:00:39;39.08;33.37
70170;DHT22;57543;45.442;9.212;2022-08-06T13:03:46;38.98;33.71
70170;DHT22;57543;45.442;9.212;2022-08-06T13:06:50;39.01;32.63
70170;DHT22;57543;45.442;9.212;2022-08-06T13:09:54;39.21;32.59
70170;DHT22;57543;45.442;9.212;2022-08-06T13:13:03;38.95;32.57
70170;DHT22;57543;45.442;9.212;2022-08-06T13:16:11;38.74;32.40
70170;DHT22;57543;45.442;9.212;2022-08-06T13:19:17;38.86;32.59
70170;DHT22;57543;45.442;9.212;2022-08-06T13:22:22;38.87;32.43
70170;DHT22;57543;45.442;9.212;2022-08-06T13:25:26;38.55;32.89
70170;DHT22;57543;45.442;9.212;2022-08-06T13:28:29;38.69;32.31
70170;DHT22;57543;45.442;9.212;2022-08-06T13:31:34;38.76;32.62
70170;DHT22;57543;45.442;9.212;2022-08-06T13:34:50;38.76;32.01
70170;DHT22;57543;45.442;9.212;2022-08-06T13:37:55;38.88;32.10
70170;DHT22;57543;45.442;9.212;2022-08-06T13:41:00;38.84;31.93
70170;DHT22;57543;45.442;9.212;2022-08-06T13:44:03;38.70;32.00
70170;DHT22;57543;45.442;9.212;2022-08-06T13:47:09;38.73;32.02
70170;DHT22;57543;45.442;9.212;2022-08-06T13:50:19;38.62;31.18
70170;DHT22;57543;45.442;9.212;2022-08-06T13:53:23;38.43;32.36
70170;DHT22;57543;45.442;9.212;2022-08-06T13:56:27;38.39;31.67
70170;DHT22;57543;45.442;9.212;2022-08-06T13:59:31;38.56;31.57
70170;DHT22;57543;45.442;9.212;2022-08-06T14:02:35;38.76;30.49
70170;DHT22;57543;45.442;9.212;2022-08-06T14:05:39;38.84;30.44
70170;DHT22;57543;45.442;9.212;2022-08-06T14:08:43;38.74;30.53
70170;DHT22;57543;45.442;9.212;2022-08-06T14:11:51;38.66;29.94
70170;DHT22;57543;45.442;9.212;2022-08-06T14:14:55;38.86;29.60
70170;DHT22;57543;45.442;9.212;2022-08-06T14:17:58;38.78;30.25
70170;DHT22;57543;45.442;9.212;2022-08-06T14:21:02;38.56;31.17
70170;DHT22;57543;45.442;9.212;2022-08-06T14:24:06;38.45;31.25
70170;DHT22;57543;45.442;9.212;2022-08-06T14:27:10;38.62;30.88
70170;DHT22;57543;45.442;9.212;2022-08-06T14:30:15;38.64;30.55
70170;DHT22;57543;45.442;9.212;2022-08-06T14:33:18;38.56;30.31
70170;DHT22;57543;45.442;9.212;2022-08-06T14:36:22;38.50;29.62
70170;DHT22;57543;45.442;9.212;2022-08-06T14:39:26;38.52;29.30
70170;DHT22;57543;45.442;9.212;2022-08-06T14:42:30;38.32;28.79
70170;DHT22;57543;45.442;9.212;2022-08-06T14:45:52;38.00;29.13
70170;DHT22;57543;45.442;9.212;2022-08-06T14:49:00;37.81;28.36
70170;DHT22;57543;45.442;9.212;2022-08-06T14:52:04;37.82;27.81
70170;DHT22;57543;45.442;9.212;2022-08-06T14:55:09;37.53;27.69
70170;DHT22;57543;45.442;9.212;2022-08-06T14:58:13;37.37;27.85
70170;DHT22;57543;45.442;9.212;2022-08-06T15:01:17;37.43;27.62
70170;DHT22;57543;45.442;9.212;2022-08-06T15:04:21;37.49;27.39
70170;DHT22;57543;45.442;9.212;2022-08-06T15:07:25;37.60;27.87
70170;DHT22;57543;45.442;9.212;2022-08-06T15:10:29;37.46;28.14
70170;DHT22;57543;45.442;9.212;2022-08-06T15:13:33;37.44;28.77
70170;DHT22;57543;45.442;9.212;2022-08-06T15:16:37;37.35;29.03
70170;DHT22;57543;45.442;9.212;2022-08-06T15:19:41;37.35;28.77
70170;DHT22;57543;45.442;9.212;2022-08-06T15:22:44;37.47;29.25
70170;DHT22;57543;45.442;9.212;2022-08-06T15:25:48;37.66;28.79
70170;DHT22;57543;45.442;9.212;2022-08-06T15:28:53;37.33;29.01
70170;DHT22;57543;45.442;9.212;2022-08-06T15:31:56;37.42;29.86
70170;DHT22;57543;45.442;9.212;2022-08-06T15:35:00;37.50;30.10
70170;DHT22;57543;45.442;9.212;2022-08-06T15:38:03;37.57;30.37
70170;DHT22;57543;45.442;9.212;2022-08-06T15:41:07;37.59;29.54
70170;DHT22;57543;45.442;9.212;2022-08-06T15:44:11;37.59;29.77
70170;DHT22;57543;45.442;9.212;2022-08-06T15:47:15;37.35;30.35
70170;DHT22;57543;45.442;9.212;2022-08-06T15:50:19;37.23;31.74
70170;DHT22;57543;45.442;9.212;2022-08-06T15:53:22;37.11;32.09
70170;DHT22;57543;45.442;9.212;2022-08-06T15:56:27;37.02;32.54
70170;DHT22;57543;45.442;9.212;2022-08-06T15:59:33;36.91;32.73
70170;DHT22;57543;45.442;9.212;2022-08-06T16:02:36;36.88;32.52
70170;DHT22;57543;45.442;9.212;2022-08-06T16:05:41;36.85;33.13
70170;DHT22;57543;45.442;9.212;2022-08-06T16:08:45;36.78;33.64
70170;DHT22;57543;45.442;9.212;2022-08-06T16:11:49;36.68;33.19
70170;DHT22;57543;45.442;9.212;2022-08-06T16:14:53;36.67;33.63
70170;DHT22;57543;45.442;9.212;2022-08-06T16:17:57;36.50;35.42
70170;DHT22;57543;45.442;9.212;2022-08-06T16:21:01;36.41;36.54
70170;DHT22;57543;45.442;9.212;2022-08-06T16:24:05;36.30;36.37
70170;DHT22;57543;45.442;9.212;2022-08-06T16:27:10;36.08;36.38
70170;DHT22;57543;45.442;9.212;2022-08-06T16:30:14;36.03;36.75
70170;DHT22;57543;45.442;9.212;2022-08-06T16:33:18;35.91;36.68
70170;DHT22;57543;45.442;9.212;2022-08-06T16:36:22;35.84;37.04
70170;DHT22;57543;45.442;9.212;2022-08-06T16:39:29;35.78;36.78
70170;DHT22;57543;45.442;9.212;2022-08-06T16:42:33;35.77;36.62
70170;DHT22;57543;45.442;9.212;2022-08-06T16:45:37;35.80;36.35
70170;DHT22;57543;45.442;9.212;2022-08-06T16:48:41;35.73;36.54
70170;DHT22;57543;45.442;9.212;2022-08-06T16:51:45;35.65;35.80
70170;DHT22;57543;45.442;9.212;2022-08-06T16:54:51;35.58;35.98
70170;DHT22;57543;45.442;9.212;2022-08-06T16:57:54;35.61;35.70
70170;DHT22;57543;45.442;9.212;2022-08-06T17:00:58;35.58;35.76
70170;DHT22;57543;45.442;9.212;2022-08-06T17:04:02;35.58;35.41
70170;DHT22;57543;45.442;9.212;2022-08-06T17:07:06;35.49;35.58
70170;DHT22;57543;45.442;9.212;2022-08-06T17:10:11;35.50;36.68
70170;DHT22;57543;45.442;9.212;2022-08-06T17:13:18;35.41;35.40
70170;DHT22;57543;45.442;9.212;2022-08-06T17:16:21;35.33;36.81
70170;DHT22;57543;45.442;9.212;2022-08-06T17:19:24;35.33;35.82
70170;DHT22;57543;45.442;9.212;2022-08-06T17:22:29;35.25;36.08
70170;DHT22;57543;45.442;9.212;2022-08-06T17:25:33;35.26;35.87
70170;DHT22;57543;45.442;9.212;2022-08-06T17:28:36;35.19;35.54
70170;DHT22;57543;45.442;9.212;2022-08-06T17:31:40;35.05;36.20
70170;DHT22;57543;45.442;9.212;2022-08-06T17:34:44;34.95;36.54
70170;DHT22;57543;45.442;9.212;2022-08-06T17:37:48;34.87;36.89
70170;DHT22;57543;45.442;9.212;2022-08-06T17:40:53;34.88;36.82
70170;DHT22;57543;45.442;9.212;2022-08-06T17:43:57;34.84;36.46
70170;DHT22;57543;45.442;9.212;2022-08-06T17:47:01;34.77;36.03
70170;DHT22;57543;45.442;9.212;2022-08-06T17:50:05;34.70;35.91
70170;DHT22;57543;45.442;9.212;2022-08-06T17:53:12;34.48;35.76
70170;DHT22;57543;45.442;9.212;2022-08-06T17:56:16;34.54;35.17
70170;DHT22;57543;45.442;9.212;2022-08-06T17:59:20;34.39;35.60
70170;DHT22;57543;45.442;9.212;2022-08-06T18:02:23;34.28;35.38
70170;DHT22;57543;45.442;9.212;2022-08-06T18:05:27;34.13;35.94
70170;DHT22;57543;45.442;9.212;2022-08-06T18:08:31;34.02;36.04
70170;DHT22;57543;45.442;9.212;2022-08-06T18:11:35;34.02;35.70
70170;DHT22;57543;45.442;9.212;2022-08-06T18:14:40;34.02;35.54
70170;DHT22;57543;45.442;9.212;2022-08-06T18:17:43;33.88;35.91
70170;DHT22;57543;45.442;9.212;2022-08-06T18:20:47;33.79;36.03
70170;DHT22;57543;45.442;9.212;2022-08-06T18:23:51;33.78;36.01
70170;DHT22;57543;45.442;9.212;2022-08-06T18:26:54;33.71;35.92
70170;DHT22;57543;45.442;9.212;2022-08-06T18:29:58;33.62;35.57
70170;DHT22;57543;45.442;9.212;2022-08-06T18:33:03;33.51;35.72
70170;DHT22;57543;45.442;9.212;2022-08-06T18:36:08;33.19;36.50
70170;DHT22;57543;45.442;9.212;2022-08-06T18:39:11;33.04;37.09
70170;DHT22;57543;45.442;9.212;2022-08-06T18:42:16;32.87;37.51
70170;DHT22;57543;45.442;9.212;2022-08-06T18:45:20;32.82;37.89
70170;DHT22;57543;45.442;9.212;2022-08-06T18:48:24;32.78;38.21
70170;DHT22;57543;45.442;9.212;2022-08-06T18:51:30;33.10;37.60
70170;DHT22;57543;45.442;9.212;2022-08-06T18:54:34;33.12;37.45
70170;DHT22;57543;45.442;9.212;2022-08-06T18:57:40;34.19;35.85
70170;DHT22;57543;45.442;9.212;2022-08-06T19:00:44;34.64;35.06
70170;DHT22;57543;45.442;9.212;2022-08-06T19:03:48;34.92;34.59
70170;DHT22;57543;45.442;9.212;2022-08-06T19:06:52;35.60;33.78
70170;DHT22;57543;45.442;9.212;2022-08-06T19:09:56;35.91;33.20
70170;DHT22;57543;45.442;9.212;2022-08-06T19:13:00;37.05;31.87
70170;DHT22;57543;45.442;9.212;2022-08-06T19:16:04;37.08;31.64
70170;DHT22;57543;45.442;9.212;2022-08-06T19:19:08;37.14;32.02
70170;DHT22;57543;45.442;9.212;2022-08-06T19:22:12;36.88;32.10
70170;DHT22;57543;45.442;9.212;2022-08-06T19:25:28;36.03;33.34
70170;DHT22;57543;45.442;9.212;2022-08-06T19:28:32;36.11;33.34
70170;DHT22;57543;45.442;9.212;2022-08-06T19:31:36;36.88;32.31
70170;DHT22;57543;45.442;9.212;2022-08-06T19:34:40;35.95;33.67
70170;DHT22;57543;45.442;9.212;2022-08-06T19:37:44;36.58;32.82
70170;DHT22;57543;45.442;9.212;2022-08-06T19:40:48;35.78;33.93
70170;DHT22;57543;45.442;9.212;2022-08-06T19:43:51;36.25;33.10
70170;DHT22;57543;45.442;9.212;2022-08-06T19:46:55;36.20;33.21
70170;DHT22;57543;45.442;9.212;2022-08-06T19:50:00;35.54;34.34
70170;DHT22;57543;45.442;9.212;2022-08-06T19:53:04;35.37;34.60
70170;DHT22;57543;45.442;9.212;2022-08-06T19:56:09;35.46;34.52
70170;DHT22;57543;45.442;9.212;2022-08-06T19:59:14;35.84;33.61
70170;DHT22;57543;45.442;9.212;2022-08-06T20:02:18;35.09;34.54
70170;DHT22;57543;45.442;9.212;2022-08-06T20:05:23;34.81;34.81
70170;DHT22;57543;45.442;9.212;2022-08-06T20:08:27;34.65;34.64
70170;DHT22;57543;45.442;9.212;2022-08-06T20:11:31;33.99;35.32
70170;DHT22;57543;45.442;9.212;2022-08-06T20:14:34;33.57;35.86
70170;DHT22;57543;45.442;9.212;2022-08-06T20:17:40;32.99;36.60
70170;DHT22;57543;45.442;9.212;2022-08-06T20:20:44;32.57;37.25
70170;DHT22;57543;45.442;9.212;2022-08-06T20:23:47;32.24;37.75
70170;DHT22;57543;45.442;9.212;2022-08-06T20:26:52;31.89;38.47
70170;DHT22;57543;45.442;9.212;2022-08-06T20:29:55;31.86;38.71
70170;DHT22;57543;45.442;9.212;2022-08-06T20:32:59;31.63;39.13
70170;DHT22;57543;45.442;9.212;2022-08-06T20:36:04;31.52;39.46
70170;DHT22;57543;45.442;9.212;2022-08-06T20:39:08;31.23;40.16